Time;durP1;ratioP1;P1;durP2;ratioP2;P2;SDS_P1;SDS_P2;PMS_P1;PMS_P2;Temp;Humidity;BMP_temperature;BMP_pressure;BME280_temperature;BME280_humidity;BME280_pressure;Samples;Min_cycle;Max_cycle;Signal;HPM_P1;HPM_P2
2023/06/11 00:00:09;;;;;;;8.55;4.72;;;18.60;92.60;;;;;;5032035;28;20232;-71
2023/06/11 00:02:58;;;;;;;9.65;4.78;;;18.60;92.20;;;;;;5006865;28;20229;-71
2023/06/11 00:05:47;;;;;;;6.10;5.03;;;18.60;92.60;;;;;;5020289;28;20253;-72
2023/06/11 00:08:36;;;;;;;9.57;4.95;;;18.50;91.80;;;;;;5026784;28;20740;-70
2023/06/11 00:11:25;;;;;;;8.95;4.80;;;18.40;92.20;;;;;;5027899;28;20236;-70
2023/06/11 00:14:14;;;;;;;8.32;4.88;;;18.40;92.00;;;;;;5025740;28;20800;-72
2023/06/11 00:17:04;;;;;;;8.32;4.60;;;18.30;91.60;;;;;;5019192;28;20274;-71
2023/06/11 00:19:53;;;;;;;8.35;4.45;;;18.30;91.90;;;;;;5025258;28;20290;-70
2023/06/11 00:22:42;;;;;;;9.63;4.88;;;18.20;91.50;;;;;;5005991;28;20673;-74
2023/06/11 00:25:32;;;;;;;8.57;5.07;;;18.30;91.30;;;;;;5009531;28;20218;-71
2023/06/11 00:28:21;;;;;;;6.55;4.47;;;18.30;91.10;;;;;;5015188;28;20233;-71
2023/06/11 00:31:09;;;;;;;9.75;4.60;;;18.20;91.00;;;;;;5022989;28;20217;-70
2023/06/11 00:34:01;;;;;;;7.03;4.50;;;18.10;91.10;;;;;;5034777;28;20236;-73
2023/06/11 00:36:53;;;;;;;6.80;4.45;;;18.10;91.00;;;;;;5062637;28;20360;-70
2023/06/11 00:39:42;;;;;;;9.63;4.93;;;18.20;91.20;;;;;;5045123;28;22030;-71
2023/06/11 00:42:33;;;;;;;9.48;4.40;;;17.90;90.60;;;;;;5027293;28;20324;-73
2023/06/11 00:45:24;;;;;;;8.40;4.40;;;18.00;90.70;;;;;;5031649;28;20690;-70
2023/06/11 00:48:12;;;;;;;9.10;4.15;;;18.10;90.80;;;;;;5031361;28;20990;-71
2023/06/11 00:51:03;;;;;;;11.05;4.43;;;18.00;90.70;;;;;;5044063;28;20247;-71
2023/06/11 00:53:53;;;;;;;6.53;4.10;;;17.90;90.50;;;;;;5047628;28;20220;-68
2023/06/11 00:56:43;;;;;;;5.88;3.78;;;17.90;90.20;;;;;;5012999;28;20256;-70
2023/06/11 00:59:34;;;;;;;7.40;3.80;;;17.80;90.60;;;;;;5031384;28;20232;-70
2023/06/11 01:02:27;;;;;;;4.60;3.53;;;17.80;90.30;;;;;;5023374;28;20229;-69
2023/06/11 01:05:18;;;;;;;7.20;3.90;;;17.80;90.50;;;;;;5011413;28;20653;-70
2023/06/11 01:08:09;;;;;;;7.10;3.75;;;17.90;90.20;;;;;;5007950;28;20232;-70
2023/06/11 01:11:01;;;;;;;5.82;3.70;;;17.80;90.10;;;;;;5042722;28;20228;-70
2023/06/11 01:13:53;;;;;;;7.22;3.90;;;17.90;90.80;;;;;;5041651;28;20232;-69
2023/06/11 01:16:46;;;;;;;9.10;3.47;;;17.60;89.90;;;;;;5044482;28;20232;-71
2023/06/11 01:20:12;;;;;;;5.93;3.63;;;17.50;90.00;;;;;;5001189;28;20790;-70
2023/06/11 01:23:22;;;;;;;5.95;3.58;;;17.60;90.50;;;;;;5027983;28;20949;-71
2023/06/11 01:26:29;;;;;;;4.88;3.10;;;17.60;89.60;;;;;;5012934;28;20242;-70
2023/06/11 01:29:22;;;;;;;6.20;3.58;;;17.50;89.30;;;;;;5012211;28;20687;-69
2023/06/11 01:32:13;;;;;;;7.45;3.53;;;17.30;89.00;;;;;;5012736;28;20248;-70
2023/06/11 01:35:06;;;;;;;8.45;3.40;;;17.30;89.20;;;;;;5025200;28;20234;-71
2023/06/11 01:38:03;;;;;;;8.18;3.97;;;17.30;89.10;;;;;;5015185;28;20229;-72
2023/06/11 01:40:58;;;;;;;7.13;3.70;;;17.00;88.60;;;;;;5023845;28;20256;-70
2023/06/11 01:43:48;;;;;;;7.45;3.60;;;17.20;89.00;;;;;;5004579;28;20230;-71
2023/06/11 01:46:38;;;;;;;6.70;3.13;;;17.00;88.90;;;;;;5013709;28;20654;-71
2023/06/11 01:49:28;;;;;;;4.03;3.38;;;17.10;89.80;;;;;;5003497;28;20258;-71
2023/06/11 01:52:17;;;;;;;8.30;3.00;;;17.20;88.90;;;;;;5003813;28;20226;-71
2023/06/11 01:55:07;;;;;;;3.95;2.92;;;17.10;88.50;;;;;;5015618;28;20226;-71
2023/06/11 01:57:56;;;;;;;5.32;2.95;;;16.90;89.00;;;;;;5013453;28;20328;-70
2023/06/11 02:00:49;;;;;;;5.47;3.10;;;16.90;88.10;;;;;;5012976;28;20739;-71
2023/06/11 02:03:40;;;;;;;5.70;3.05;;;16.80;88.60;;;;;;5033024;28;20225;-70
2023/06/11 02:06:29;;;;;;;4.30;2.63;;;16.90;88.30;;;;;;5041511;28;20255;-70
2023/06/11 02:09:18;;;;;;;8.57;3.20;;;16.80;87.60;;;;;;5019095;28;20268;-71
2023/06/11 02:12:08;;;;;;;6.63;3.47;;;16.90;88.00;;;;;;5021290;28;20221;-71
2023/06/11 02:14:57;;;;;;;4.95;3.03;;;16.80;87.60;;;;;;5027655;28;20336;-70
2023/06/11 02:17:46;;;;;;;4.97;3.10;;;16.90;88.10;;;;;;5008274;28;20311;-70
2023/06/11 02:20:37;;;;;;;5.22;3.10;;;16.80;87.80;;;;;;5029406;28;20225;-70
2023/06/11 02:23:25;;;;;;;4.95;2.75;;;16.70;88.00;;;;;;5041803;28;20221;-70
2023/06/11 02:26:14;;;;;;;8.55;2.80;;;16.60;87.90;;;;;;5029854;28;20225;-71
2023/06/11 02:29:03;;;;;;;8.10;2.90;;;16.50;87.50;;;;;;5058542;28;20228;-71
2023/06/11 02:31:52;;;;;;;3.70;2.95;;;16.40;88.20;;;;;;5035514;28;20234;-71
2023/06/11 02:34:41;;;;;;;5.10;2.65;;;16.50;87.60;;;;;;5033022;28;20229;-71
2023/06/11 02:37:31;;;;;;;4.35;2.67;;;16.50;88.20;;;;;;5021870;28;20225;-72
2023/06/11 02:40:20;;;;;;;6.43;2.60;;;16.50;88.80;;;;;;5011530;28;20275;-71
2023/06/11 02:43:09;;;;;;;3.67;2.60;;;16.70;88.20;;;;;;5040005;28;20578;-72
2023/06/11 02:45:57;;;;;;;7.07;2.85;;;16.50;87.00;;;;;;5037982;28;20228;-71
2023/06/11 02:48:47;;;;;;;4.35;2.58;;;16.60;87.70;;;;;;5025241;28;20428;-71
2023/06/11 02:51:35;;;;;;;5.35;2.70;;;16.70;90.90;;;;;;5039499;28;20838;-71
2023/06/11 02:54:25;;;;;;;6.45;3.00;;;16.50;90.70;;;;;;5041153;28;20247;-71
2023/06/11 02:57:14;;;;;;;4.65;2.90;;;16.60;90.20;;;;;;5063010;28;20235;-70
2023/06/11 03:00:09;;;;;;;3.78;2.72;;;16.60;89.50;;;;;;5064981;28;20231;-71
2023/06/11 03:02:58;;;;;;;5.63;2.88;;;16.60;90.10;;;;;;5047525;28;20216;-69
2023/06/11 03:05:54;;;;;;;6.50;3.20;;;16.50;90.40;;;;;;5035575;28;20233;-71
2023/06/11 03:08:43;;;;;;;7.90;3.10;;;16.50;88.60;;;;;;5020066;28;20306;-71
2023/06/11 03:11:33;;;;;;;5.38;2.90;;;16.50;89.00;;;;;;5006124;28;20312;-72
2023/06/11 03:14:24;;;;;;;5.57;3.05;;;16.60;88.90;;;;;;5003965;28;20498;-70
2023/06/11 03:17:13;;;;;;;4.72;3.10;;;16.70;90.20;;;;;;5004596;28;20596;-70
2023/06/11 03:20:02;;;;;;;8.00;3.03;;;16.50;87.30;;;;;;5004219;28;20226;-71
2023/06/11 03:22:51;;;;;;;5.22;2.75;;;16.50;88.50;;;;;;5006700;28;20248;-71
2023/06/11 03:25:40;;;;;;;3.75;2.80;;;16.50;89.20;;;;;;5034678;28;20221;-72
2023/06/11 03:28:30;;;;;;;6.57;3.20;;;16.70;91.50;;;;;;5034584;28;20229;-71
2023/06/11 03:31:20;;;;;;;3.92;2.75;;;16.70;88.50;;;;;;5017895;28;20303;-70
2023/06/11 03:34:10;;;;;;;6.55;2.88;;;16.60;90.20;;;;;;5024463;28;20236;-72
2023/06/11 03:36:59;;;;;;;5.30;2.70;;;16.50;90.70;;;;;;5013940;28;20252;-71
2023/06/11 03:39:48;;;;;;;8.07;2.67;;;16.50;90.90;;;;;;5008730;28;20239;-71
2023/06/11 03:42:37;;;;;;;7.72;2.75;;;16.30;88.20;;;;;;5018852;28;20234;-70
2023/06/11 03:45:27;;;;;;;7.25;3.10;;;16.40;88.40;;;;;;5014441;28;20227;-70
2023/06/11 03:48:16;;;;;;;7.90;2.85;;;16.50;88.50;;;;;;5035369;28;20222;-70
2023/06/11 03:51:05;;;;;;;6.70;3.10;;;16.60;88.60;;;;;;5023679;28;20709;-71
2023/06/11 03:53:54;;;;;;;4.68;2.65;;;16.60;87.90;;;;;;5000996;28;20222;-69
2023/06/11 03:56:43;;;;;;;5.80;3.00;;;16.70;88.40;;;;;;5009843;28;20225;-68
2023/06/11 03:59:32;;;;;;;5.53;2.80;;;16.60;88.10;;;;;;5013454;28;20321;-71
2023/06/11 04:02:23;;;;;;;4.47;2.90;;;16.70;90.00;;;;;;5003116;28;20233;-72
2023/06/11 04:05:12;;;;;;;3.78;2.80;;;16.70;91.80;;;;;;5019653;28;20820;-72
2023/06/11 04:08:03;;;;;;;7.65;2.50;;;16.70;88.00;;;;;;5020352;28;20379;-73
2023/06/11 04:10:52;;;;;;;4.00;3.08;;;16.70;87.50;;;;;;5003444;28;20818;-72
2023/06/11 04:13:41;;;;;;;4.30;2.90;;;16.70;88.00;;;;;;5017693;28;20751;-72
2023/06/11 04:16:30;;;;;;;5.97;2.70;;;16.70;87.50;;;;;;5028393;28;20341;-73
2023/06/11 04:19:20;;;;;;;4.60;3.00;;;16.80;88.60;;;;;;5039490;28;20794;-71
2023/06/11 04:22:09;;;;;;;4.30;2.78;;;17.00;88.50;;;;;;5007372;28;20225;-72
2023/06/11 04:24:58;;;;;;;3.45;2.67;;;17.10;87.40;;;;;;5037273;28;21040;-72
2023/06/11 04:27:47;;;;;;;3.15;2.70;;;17.10;87.40;;;;;;5026735;28;20248;-72
2023/06/11 04:30:39;;;;;;;5.57;2.88;;;16.90;87.10;;;;;;5026276;28;20312;-73
2023/06/11 04:33:32;;;;;;;6.43;2.88;;;16.90;87.10;;;;;;5024639;28;20221;-73
2023/06/11 04:36:27;;;;;;;6.80;3.10;;;17.10;87.30;;;;;;5039618;28;20286;-73
2023/06/11 04:39:16;;;;;;;5.18;3.00;;;17.40;87.50;;;;;;5017597;28;20218;-73
2023/06/11 04:42:05;;;;;;;5.15;2.88;;;17.40;86.70;;;;;;5010251;28;20713;-72
2023/06/11 04:44:56;;;;;;;4.45;2.72;;;17.30;85.70;;;;;;5023726;28;20722;-73
2023/06/11 04:47:46;;;;;;;7.35;3.03;;;17.40;86.20;;;;;;5029406;28;20230;-72
2023/06/11 04:50:37;;;;;;;4.80;3.13;;;17.30;85.40;;;;;;5032110;28;20233;-72
2023/06/11 04:53:31;;;;;;;6.05;2.85;;;17.10;86.00;;;;;;5032018;28;20243;-73
2023/06/11 04:56:19;;;;;;;4.10;2.47;;;17.40;86.40;;;;;;5031539;28;20233;-72
2023/06/11 04:59:08;;;;;;;4.95;2.40;;;17.50;86.10;;;;;;5031439;28;20231;-72
2023/06/11 05:01:57;;;;;;;3.83;2.92;;;17.80;85.80;;;;;;5021224;28;20225;-73
2023/06/11 05:04:53;;;;;;;4.10;2.70;;;17.50;85.20;;;;;;5014632;28;20662;-71
2023/06/11 05:07:42;;;;;;;6.82;2.65;;;17.60;85.60;;;;;;5002681;28;20311;-73
2023/06/11 05:10:33;;;;;;;6.07;2.65;;;17.60;85.40;;;;;;5015126;28;20217;-72
2023/06/11 05:13:24;;;;;;;5.10;2.60;;;17.70;85.10;;;;;;5026474;28;20230;-72
2023/06/11 05:16:21;;;;;;;6.20;2.90;;;17.80;85.80;;;;;;5035930;28;20227;-72
2023/06/11 05:19:11;;;;;;;4.88;2.67;;;17.80;86.00;;;;;;5025703;28;20313;-71
2023/06/11 05:22:00;;;;;;;4.70;2.83;;;18.10;85.80;;;;;;5048187;28;20228;-72
2023/06/11 05:24:49;;;;;;;4.47;2.83;;;18.20;84.60;;;;;;5033820;28;20231;-72
2023/06/11 05:27:40;;;;;;;5.18;2.70;;;18.10;84.50;;;;;;5031039;28;20228;-72
2023/06/11 05:30:29;;;;;;;4.75;2.65;;;18.10;84.60;;;;;;5043917;28;20334;-71
2023/06/11 05:33:18;;;;;;;6.50;2.83;;;18.50;85.00;;;;;;5031401;28;20639;-70
2023/06/11 05:36:07;;;;;;;5.10;2.85;;;18.50;82.90;;;;;;5014844;28;20229;-70
2023/06/11 05:38:56;;;;;;;4.93;2.45;;;18.30;83.70;;;;;;5026583;28;20231;-73
2023/06/11 05:41:45;;;;;;;4.68;2.60;;;18.40;84.00;;;;;;5004235;28;20771;-71
2023/06/11 05:44:37;;;;;;;3.55;2.70;;;18.20;84.00;;;;;;5028895;28;20573;-71
2023/06/11 05:47:25;;;;;;;4.82;2.55;;;18.40;85.40;;;;;;5045927;28;20312;-70
2023/06/11 05:50:15;;;;;;;7.15;2.45;;;18.70;84.80;;;;;;5005973;28;20226;-70
2023/06/11 05:53:04;;;;;;;5.40;2.50;;;18.60;83.60;;;;;;5016721;28;20224;-68
2023/06/11 05:55:53;;;;;;;6.15;2.63;;;18.90;83.20;;;;;;5025624;28;20221;-70
2023/06/11 05:58:44;;;;;;;6.60;2.45;;;18.80;83.10;;;;;;5021126;28;20222;-70
2023/06/11 06:01:36;;;;;;;4.97;2.78;;;18.90;84.20;;;;;;5003500;28;20668;-71
2023/06/11 06:04:26;;;;;;;3.60;2.35;;;18.90;82.40;;;;;;5018165;28;20230;-71
2023/06/11 06:07:15;;;;;;;4.30;2.38;;;19.00;82.50;;;;;;5014927;28;20332;-72
2023/06/11 06:10:05;;;;;;;4.30;2.33;;;19.10;83.00;;;;;;5049657;28;20588;-70
2023/06/11 06:12:54;;;;;;;2.88;2.30;;;19.40;82.90;;;;;;5009888;28;20385;-69
2023/06/11 06:15:43;;;;;;;4.47;2.38;;;19.50;81.90;;;;;;5038739;28;20265;-70
2023/06/11 06:18:35;;;;;;;6.32;2.42;;;19.70;80.90;;;;;;5022281;28;20229;-71
2023/06/11 06:21:23;;;;;;;4.65;2.72;;;19.40;80.80;;;;;;5018351;28;20799;-72
2023/06/11 06:24:12;;;;;;;3.13;2.65;;;19.60;80.80;;;;;;5019788;28;20703;-71
2023/06/11 06:27:01;;;;;;;5.32;3.00;;;19.70;81.00;;;;;;5034932;28;20741;-70
2023/06/11 06:29:53;;;;;;;3.90;2.65;;;19.70;81.30;;;;;;5016930;28;20222;-71
2023/06/11 06:32:43;;;;;;;7.55;2.22;;;19.50;80.50;;;;;;5029823;28;20229;-71
2023/06/11 06:35:33;;;;;;;3.22;2.40;;;19.80;81.00;;;;;;5017091;28;20225;-73
2023/06/11 06:38:24;;;;;;;7.88;2.50;;;19.80;80.80;;;;;;5037446;28;20303;-73
2023/06/11 06:41:13;;;;;;;6.80;2.50;;;19.90;81.10;;;;;;5028360;28;20295;-71
2023/06/11 06:44:02;;;;;;;7.75;2.75;;;19.80;80.50;;;;;;5002423;28;20808;-71
2023/06/11 06:46:53;;;;;;;4.03;2.60;;;20.10;80.30;;;;;;5033203;28;20631;-71
2023/06/11 06:49:44;;;;;;;3.45;2.63;;;20.70;79.70;;;;;;5015918;28;20640;-72
2023/06/11 06:52:34;;;;;;;4.60;2.63;;;21.00;78.60;;;;;;5025821;28;20327;-72
2023/06/11 06:55:23;;;;;;;4.65;2.42;;;21.30;78.10;;;;;;5029564;28;20547;-72
2023/06/11 06:58:17;;;;;;;5.18;2.38;;;20.80;75.80;;;;;;5027778;28;20236;-72
2023/06/11 07:01:07;;;;;;;2.88;2.08;;;21.00;77.50;;;;;;5027746;28;20916;-73
2023/06/11 07:03:57;;;;;;;3.63;2.20;;;21.10;75.80;;;;;;5021028;28;20240;-72
2023/06/11 07:06:46;;;;;;;7.25;2.92;;;21.40;75.00;;;;;;5014529;28;20842;-72
2023/06/11 07:09:36;;;;;;;4.35;2.45;;;21.40;74.50;;;;;;5034929;28;20247;-71
2023/06/11 07:12:25;;;;;;;3.85;2.30;;;22.60;73.30;;;;;;5001141;28;20229;-72
2023/06/11 07:15:15;;;;;;;3.03;2.42;;;22.10;70.80;;;;;;5014610;28;20300;-72
2023/06/11 07:18:04;;;;;;;6.43;2.30;;;22.20;71.40;;;;;;5042280;28;20238;-72
2023/06/11 07:20:53;;;;;;;3.05;2.28;;;21.80;71.20;;;;;;5031748;28;20700;-72
2023/06/11 07:23:43;;;;;;;4.13;2.00;;;22.20;71.10;;;;;;5015682;28;20225;-71
2023/06/11 07:26:34;;;;;;;4.55;2.47;;;22.00;70.90;;;;;;5023081;28;20257;-72
2023/06/11 07:29:25;;;;;;;5.53;2.40;;;22.40;69.20;;;;;;5029206;28;20233;-71
2023/06/11 07:32:13;;;;;;;4.75;2.22;;;22.70;68.50;;;;;;5017259;28;20329;-71
2023/06/11 07:35:02;;;;;;;4.15;2.67;;;22.70;66.70;;;;;;5018564;28;20225;-73
2023/06/11 07:37:52;;;;;;;5.10;2.28;;;23.20;65.80;;;;;;5025946;28;20232;-71
2023/06/11 07:40:41;;;;;;;6.25;2.42;;;23.40;65.30;;;;;;5020524;28;20320;-71
2023/06/11 07:43:32;;;;;;;5.40;2.20;;;23.60;63.20;;;;;;5019855;28;20242;-71
2023/06/11 07:46:21;;;;;;;3.83;2.30;;;24.20;64.20;;;;;;5012267;28;20218;-72
2023/06/11 07:49:10;;;;;;;4.50;2.35;;;24.30;61.20;;;;;;5011395;28;20225;-71
2023/06/11 07:51:59;;;;;;;2.40;2.22;;;24.40;60.70;;;;;;5021617;28;20711;-71
2023/06/11 07:54:48;;;;;;;4.25;2.35;;;24.00;58.70;;;;;;5041576;28;20221;-72
2023/06/11 07:57:37;;;;;;;3.85;2.40;;;23.40;60.60;;;;;;5039357;28;20270;-71
2023/06/11 08:00:28;;;;;;;3.70;2.25;;;24.20;59.80;;;;;;5026824;28;20322;-72
2023/06/11 08:03:17;;;;;;;6.22;2.60;;;24.10;60.00;;;;;;5023605;28;20224;-71
2023/06/11 08:06:06;;;;;;;3.60;2.40;;;24.40;58.90;;;;;;5037163;28;20564;-72
2023/06/11 08:08:55;;;;;;;5.57;2.67;;;24.40;59.90;;;;;;4996404;28;20226;-71
2023/06/11 08:11:44;;;;;;;4.63;2.22;;;24.90;58.60;;;;;;5017419;28;20259;-71
2023/06/11 08:14:33;;;;;;;4.50;2.42;;;24.90;59.00;;;;;;5007918;28;20233;-72
2023/06/11 08:17:24;;;;;;;3.30;2.17;;;25.10;59.50;;;;;;5010927;28;20232;-71
2023/06/11 08:20:14;;;;;;;4.85;2.50;;;24.60;58.80;;;;;;5025968;28;20248;-72
2023/06/11 08:23:03;;;;;;;4.82;2.47;;;24.80;59.20;;;;;;5018711;28;20272;-73
2023/06/11 08:25:52;;;;;;;3.95;2.72;;;25.60;59.00;;;;;;5032689;28;20291;-71
2023/06/11 08:28:40;;;;;;;2.40;2.20;;;26.40;59.80;;;;;;5008950;28;20237;-72
2023/06/11 08:31:29;;;;;;;5.53;2.53;;;25.90;57.90;;;;;;5025826;28;20222;-72
2023/06/11 08:34:19;;;;;;;4.05;2.63;;;26.30;58.90;;;;;;5023132;28;20225;-71
2023/06/11 08:37:08;;;;;;;7.60;2.30;;;26.70;59.00;;;;;;5038205;28;20229;-72
2023/06/11 08:39:57;;;;;;;6.38;2.30;;;26.80;56.50;;;;;;5023547;28;20229;-71
2023/06/11 08:42:50;;;;;;;6.05;2.60;;;26.00;57.20;;;;;;5019655;28;20700;-71
2023/06/11 08:45:39;;;;;;;5.88;2.40;;;25.90;57.90;;;;;;5024317;28;20255;-71
2023/06/11 08:48:31;;;;;;;10.73;2.40;;;26.00;58.30;;;;;;5019947;28;20233;-73
2023/06/11 08:51:21;;;;;;;6.07;2.58;;;25.70;57.70;;;;;;5025710;28;20225;-72
2023/06/11 08:54:10;;;;;;;5.95;2.13;;;25.00;57.80;;;;;;5010871;28;20587;-72
2023/06/11 08:56:59;;;;;;;4.97;2.38;;;25.00;58.80;;;;;;5016351;28;20241;-72
2023/06/11 08:59:48;;;;;;;5.13;2.38;;;25.30;59.00;;;;;;5010526;28;20272;-71
2023/06/11 09:02:37;;;;;;;4.95;2.40;;;25.00;58.20;;;;;;5039172;28;20274;-72
2023/06/11 09:05:26;;;;;;;2.65;2.28;;;25.80;58.30;;;;;;5036254;28;20359;-71
2023/06/11 09:08:16;;;;;;;4.35;2.20;;;26.10;58.10;;;;;;5025918;28;20680;-72
2023/06/11 09:11:06;;;;;;;6.90;2.40;;;26.50;58.20;;;;;;5023906;28;20328;-71
2023/06/11 09:13:56;;;;;;;5.80;2.45;;;27.10;57.40;;;;;;5023173;28;20222;-72
2023/06/11 09:16:47;;;;;;;2.78;2.58;;;26.90;57.40;;;;;;5033326;28;20252;-72
2023/06/11 09:19:38;;;;;;;5.25;2.38;;;26.70;56.90;;;;;;5017469;28;20232;-72
2023/06/11 09:22:27;;;;;;;4.07;2.38;;;26.00;56.90;;;;;;5015263;28;20312;-74
2023/06/11 09:25:18;;;;;;;3.15;2.45;;;25.80;57.60;;;;;;5027307;28;20788;-72
2023/06/11 09:28:07;;;;;;;3.53;2.38;;;26.50;56.60;;;;;;5023229;28;20218;-71
2023/06/11 09:30:57;;;;;;;6.68;2.55;;;27.20;56.00;;;;;;5020995;28;20237;-72
2023/06/11 09:33:46;;;;;;;3.85;2.60;;;27.20;55.70;;;;;;5026309;28;20264;-71
2023/06/11 09:36:35;;;;;;;3.53;2.28;;;27.10;54.50;;;;;;5025325;28;20226;-71
2023/06/11 09:39:25;;;;;;;3.50;2.50;;;27.50;53.30;;;;;;5030204;28;20230;-73
2023/06/11 09:42:24;;;;;;;5.72;2.50;;;27.30;53.80;;;;;;5017354;28;20225;-72
2023/06/11 09:45:17;;;;;;;2.85;2.58;;;27.90;53.30;;;;;;5005438;28;20222;-72
2023/06/11 09:48:06;;;;;;;3.47;2.28;;;28.40;53.00;;;;;;5031250;28;20236;-72
2023/06/11 09:50:55;;;;;;;5.22;2.55;;;29.90;51.50;;;;;;5047836;28;20224;-72
2023/06/11 09:53:45;;;;;;;5.80;2.60;;;28.80;51.90;;;;;;5052912;28;20265;-72
2023/06/11 09:56:36;;;;;;;6.85;2.70;;;29.70;50.60;;;;;;5022838;28;20232;-72
2023/06/11 09:59:27;;;;;;;5.38;2.75;;;29.40;49.80;;;;;;5023164;28;20339;-71
2023/06/11 10:02:16;;;;;;;4.28;2.67;;;31.00;49.80;;;;;;5024239;28;20256;-71
2023/06/11 10:05:06;;;;;;;3.55;2.30;;;32.00;49.40;;;;;;5037089;28;20311;-71
2023/06/11 10:08:02;;;;;;;5.90;2.50;;;32.10;48.50;;;;;;5045093;28;20217;-72
2023/06/11 10:10:55;;;;;;;3.53;2.70;;;32.10;47.70;;;;;;5004090;28;20236;-69
2023/06/11 10:13:57;;;;;;;6.57;2.47;;;31.60;47.30;;;;;;5014246;28;20231;-72
2023/06/11 10:16:56;;;;;;;7.05;3.00;;;32.30;47.10;;;;;;5022775;28;20220;-72
2023/06/11 10:19:49;;;;;;;4.07;2.80;;;33.10;45.30;;;;;;5029331;28;20220;-72
2023/06/11 10:22:38;;;;;;;4.63;2.67;;;35.30;47.20;;;;;;5044521;28;20458;-69
2023/06/11 10:25:33;;;;;;;3.97;2.70;;;35.30;43.50;;;;;;5031328;28;20303;-73
2023/06/11 10:28:34;;;;;;;5.25;2.80;;;34.80;44.80;;;;;;5032359;28;20244;-71
2023/06/11 10:31:27;;;;;;;3.22;2.30;;;33.60;44.50;;;;;;5018627;28;20248;-71
2023/06/11 10:34:17;;;;;;;4.18;2.55;;;34.20;45.70;;;;;;5030035;28;20922;-70
2023/06/11 10:37:06;;;;;;;4.50;2.88;;;37.00;45.50;;;;;;5053379;28;20239;-70
2023/06/11 10:39:55;;;;;;;5.22;2.60;;;36.90;42.70;;;;;;5020495;28;20228;-70
2023/06/11 10:42:45;;;;;;;6.10;2.70;;;36.40;42.20;;;;;;5017753;28;20323;-71
2023/06/11 10:45:37;;;;;;;6.57;3.15;;;34.60;43.50;;;;;;5023193;28;20362;-71
2023/06/11 10:48:29;;;;;;;3.42;2.85;;;36.10;42.30;;;;;;5022877;28;20213;-71
2023/06/11 10:51:20;;;;;;;4.25;2.50;;;36.80;42.20;;;;;;5002980;28;20217;-71
2023/06/11 10:54:09;;;;;;;2.97;2.67;;;35.80;42.60;;;;;;5017313;28;20220;-71
2023/06/11 10:57:01;;;;;;;3.75;2.70;;;37.60;42.80;;;;;;5028091;28;20224;-71
2023/06/11 10:59:50;;;;;;;3.10;2.80;;;37.90;40.70;;;;;;5041509;28;20658;-71
2023/06/11 11:02:40;;;;;;;4.75;2.65;;;38.10;41.30;;;;;;5039913;28;20363;-70
2023/06/11 11:05:29;;;;;;;5.30;2.80;;;38.10;40.40;;;;;;5028949;28;20790;-73
2023/06/11 11:08:20;;;;;;;3.50;2.50;;;36.70;43.40;;;;;;5038925;28;20240;-71
2023/06/11 11:11:13;;;;;;;7.03;2.92;;;35.40;41.70;;;;;;5023725;28;20236;-71
2023/06/11 11:14:03;;;;;;;4.22;2.78;;;36.30;41.50;;;;;;5038383;28;20235;-72
2023/06/11 11:16:52;;;;;;;3.03;2.60;;;37.30;41.50;;;;;;5042797;28;20383;-70
2023/06/11 11:19:41;;;;;;;7.63;2.60;;;35.20;41.20;;;;;;5027724;28;20224;-70
2023/06/11 11:22:30;;;;;;;4.75;2.90;;;33.90;41.90;;;;;;5041837;28;20706;-72
2023/06/11 11:25:22;;;;;;;4.38;2.65;;;33.30;43.80;;;;;;5028078;28;20406;-72
2023/06/11 11:28:12;;;;;;;6.05;3.00;;;33.70;45.20;;;;;;5019270;28;20217;-72
2023/06/11 11:31:02;;;;;;;5.05;2.90;;;35.50;42.20;;;;;;5010451;28;20788;-71
2023/06/11 11:33:51;;;;;;;5.45;2.70;;;37.30;41.50;;;;;;5021172;28;20233;-71
2023/06/11 11:36:41;;;;;;;5.93;2.63;;;34.90;42.00;;;;;;5020496;28;20233;-71
2023/06/11 11:39:33;;;;;;;4.45;2.80;;;36.00;40.90;;;;;;5022014;28;20232;-72
2023/06/11 11:42:24;;;;;;;7.07;2.95;;;37.30;41.60;;;;;;5014806;28;20304;-72
2023/06/11 11:45:14;;;;;;;4.70;2.92;;;39.00;39.80;;;;;;5016112;28;20244;-71
2023/06/11 11:48:02;;;;;;;4.18;2.97;;;39.40;38.50;;;;;;5052526;28;20224;-72
2023/06/11 11:51:05;;;;;;;4.00;2.88;;;40.50;39.10;;;;;;5021331;28;20264;-72
2023/06/11 11:53:54;;;;;;;4.32;2.60;;;41.50;41.60;;;;;;5032864;28;20239;-72
2023/06/11 11:56:45;;;;;;;4.47;2.97;;;41.10;46.40;;;;;;5021192;28;20703;-71
2023/06/11 11:59:39;;;;;;;3.58;2.78;;;41.90;43.40;;;;;;5019442;28;20306;-73
2023/06/11 12:02:28;;;;;;;7.25;2.65;;;34.90;46.40;;;;;;5021345;28;20311;-70
2023/06/11 12:05:17;;;;;;;6.68;2.90;;;40.50;43.70;;;;;;5016106;28;20222;-72
2023/06/11 12:08:07;;;;;;;5.22;2.92;;;43.10;40.60;;;;;;5021789;28;20221;-71
2023/06/11 12:10:57;;;;;;;3.08;2.78;;;39.70;40.30;;;;;;4995080;28;20252;-69
2023/06/11 12:13:46;;;;;;;3.15;2.65;;;40.10;44.20;;;;;;5018170;28;20718;-71
2023/06/11 12:16:39;;;;;;;4.97;3.10;;;41.10;42.30;;;;;;5009506;28;20225;-72
2023/06/11 12:19:31;;;;;;;3.90;3.10;;;43.10;43.90;;;;;;5037701;28;20236;-73
2023/06/11 12:22:20;;;;;;;4.53;2.75;;;37.60;37.20;;;;;;5041181;28;20274;-72
2023/06/11 12:25:09;;;;;;;3.55;3.25;;;36.50;40.20;;;;;;5017919;28;20315;-71
2023/06/11 12:27:58;;;;;;;2.83;2.63;;;35.90;39.20;;;;;;5013941;28;20220;-72
2023/06/11 12:30:48;;;;;;;6.07;2.90;;;31.90;42.00;;;;;;5020971;28;20679;-70
2023/06/11 12:33:39;;;;;;;6.35;2.85;;;40.40;39.10;;;;;;5022609;28;20220;-71
2023/06/11 12:36:28;;;;;;;3.83;2.90;;;42.10;36.40;;;;;;5010614;28;20218;-73
2023/06/11 12:39:16;;;;;;;7.13;2.88;;;43.20;34.30;;;;;;5003280;28;20226;-72
2023/06/11 12:42:06;;;;;;;5.22;2.88;;;39.30;34.60;;;;;;5013373;28;20639;-72
2023/06/11 12:44:55;;;;;;;6.10;2.80;;;40.90;36.90;;;;;;5043047;28;20220;-71
2023/06/11 12:47:43;;;;;;;6.72;3.03;;;42.00;36.50;;;;;;5042115;28;20310;-71
2023/06/11 12:50:34;;;;;;;7.45;3.50;;;33.40;41.00;;;;;;5025267;28;20292;-71
2023/06/11 12:53:23;;;;;;;4.57;3.00;;;32.30;44.80;;;;;;5026965;28;20325;-71
2023/06/11 12:56:12;;;;;;;6.60;3.55;;;;;;;;;;5017199;28;20734;-70
2023/06/11 12:59:05;;;;;;;4.97;2.80;;;30.00;43.90;;;;;;5017970;28;20229;-71
2023/06/11 13:01:54;;;;;;;5.50;3.00;;;28.40;46.30;;;;;;5034761;28;20229;-71
2023/06/11 13:04:43;;;;;;;4.03;2.80;;;27.40;47.90;;;;;;5007049;28;20719;-71
2023/06/11 13:07:34;;;;;;;4.88;3.25;;;27.00;48.50;;;;;;5020145;28;20221;-71
2023/06/11 13:10:24;;;;;;;4.47;3.25;;;26.60;48.10;;;;;;5008960;28;20756;-70
2023/06/11 13:13:14;;;;;;;6.00;3.20;;;26.40;49.50;;;;;;5005752;28;20296;-71
2023/06/11 13:16:02;;;;;;;3.50;3.13;;;26.20;49.50;;;;;;5023693;28;20639;-71
2023/06/11 13:18:52;;;;;;;5.97;4.03;;;25.90;51.10;;;;;;5015826;28;20290;-70
2023/06/11 13:21:42;;;;;;;7.90;3.92;;;26.00;51.30;;;;;;5019432;28;20340;-71
2023/06/11 13:24:32;;;;;;;4.68;3.40;;;26.00;52.10;;;;;;5019601;28;20217;-71
2023/06/11 13:27:21;;;;;;;4.60;3.20;;;25.60;52.00;;;;;;5019046;28;20308;-71
2023/06/11 13:30:11;;;;;;;16.77;3.40;;;25.70;53.10;;;;;;5024445;28;20608;-70
2023/06/11 13:33:00;;;;;;;5.05;3.65;;;25.70;51.80;;;;;;5011887;28;20897;-71
2023/06/11 13:35:49;;;;;;;4.00;3.40;;;25.60;52.60;;;;;;5014272;28;20300;-71
2023/06/11 13:38:40;;;;;;;5.40;3.72;;;25.30;52.70;;;;;;5032689;28;20229;-72
2023/06/11 13:41:30;;;;;;;4.72;3.75;;;25.00;53.20;;;;;;5024952;28;20249;-74
2023/06/11 13:44:20;;;;;;;5.00;3.30;;;;;;;;;;5018814;28;20233;-70
2023/06/11 13:47:09;;;;;;;5.53;3.13;;;25.20;53.50;;;;;;5035674;28;20244;-70
2023/06/11 13:49:58;;;;;;;9.30;3.90;;;25.50;53.40;;;;;;5023445;28;20228;-71
2023/06/11 13:52:51;;;;;;;3.95;3.40;;;25.40;53.40;;;;;;5013998;28;20237;-70
2023/06/11 13:55:40;;;;;;;5.60;3.40;;;25.30;54.30;;;;;;5005118;28;20225;-71
2023/06/11 13:58:30;;;;;;;4.45;3.17;;;25.40;54.40;;;;;;5008238;28;20225;-71
2023/06/11 14:01:19;;;;;;;7.65;2.97;;;25.20;53.30;;;;;;5024874;28;20256;-71
2023/06/11 14:04:08;;;;;;;4.85;3.25;;;24.90;51.10;;;;;;5022411;28;20235;-70
2023/06/11 14:06:57;;;;;;;7.55;3.60;;;24.60;53.20;;;;;;5033615;28;20712;-73
2023/06/11 14:09:46;;;;;;;3.83;3.10;;;24.60;54.10;;;;;;5045315;28;20220;-72
2023/06/11 14:12:35;;;;;;;5.32;3.10;;;24.70;54.20;;;;;;5025404;28;20336;-71
2023/06/11 14:15:25;;;;;;;3.63;3.08;;;24.80;55.00;;;;;;5024233;28;20237;-70
2023/06/11 14:18:14;;;;;;;5.57;3.22;;;24.60;55.80;;;;;;5034626;28;20235;-70
2023/06/11 14:21:03;;;;;;;6.00;3.40;;;24.60;56.10;;;;;;5015891;28;20696;-72
2023/06/11 14:23:51;;;;;;;4.55;3.17;;;24.60;56.10;;;;;;4994277;28;20722;-72
2023/06/11 14:26:41;;;;;;;6.68;3.10;;;24.80;56.30;;;;;;5030445;28;20312;-72
2023/06/11 14:29:29;;;;;;;7.22;2.70;;;24.50;54.70;;;;;;5024619;28;20245;-74
2023/06/11 14:32:20;;;;;;;3.78;2.97;;;24.50;55.70;;;;;;5026257;28;20641;-73
2023/06/11 14:35:09;;;;;;;7.32;2.80;;;24.40;57.20;;;;;;5010263;28;20985;-72
2023/06/11 14:37:58;;;;;;;3.72;3.20;;;24.10;58.10;;;;;;5015124;28;20715;-72
2023/06/11 14:40:51;;;;;;;5.22;3.15;;;24.00;58.30;;;;;;5008647;28;20861;-71
2023/06/11 14:43:40;;;;;;;5.53;3.35;;;24.20;58.40;;;;;;5010903;28;20229;-70
2023/06/11 14:46:29;;;;;;;6.95;3.13;;;24.10;58.20;;;;;;5022704;28;20237;-72